createdAt,value
2023-08-18T00:00:09.152Z,55.90
2023-08-18T00:02:37.426Z,56.00
2023-08-18T00:05:06.030Z,56.10
2023-08-18T00:07:34.075Z,56.00
2023-08-18T00:10:05.606Z,56.00
2023-08-18T00:12:33.939Z,56.10
2023-08-18T00:15:02.792Z,56.10
2023-08-18T00:17:31.196Z,56.00
2023-08-18T00:19:59.465Z,56.00
2023-08-18T00:22:27.462Z,56.00
2023-08-18T00:24:57.274Z,56.10
2023-08-18T00:27:25.395Z,56.10
2023-08-18T00:29:53.652Z,56.20
2023-08-18T00:32:21.692Z,56.10
2023-08-18T00:34:49.864Z,56.20
2023-08-18T00:37:17.996Z,56.10
2023-08-18T00:39:45.964Z,56.20
2023-08-18T00:42:13.905Z,56.20
2023-08-18T00:44:41.825Z,56.30
2023-08-18T00:47:09.866Z,56.20
2023-08-18T00:49:38.061Z,56.20
2023-08-18T00:52:07.552Z,56.20
2023-08-18T00:54:35.751Z,56.20
2023-08-18T00:57:04.011Z,56.30
2023-08-18T00:59:32.231Z,56.20
2023-08-18T01:02:04.014Z,56.30
2023-08-18T01:04:33.409Z,56.30
2023-08-18T01:07:01.651Z,56.30
2023-08-18T01:09:30.803Z,56.40
2023-08-18T01:12:16.499Z,56.30
2023-08-18T01:14:56.030Z,56.30
2023-08-18T01:17:41.900Z,56.30
2023-08-18T01:20:11.730Z,56.30
2023-08-18T01:22:41.577Z,56.40
2023-08-18T01:25:09.751Z,56.40
2023-08-18T01:27:37.923Z,56.30
2023-08-18T01:30:06.565Z,56.50
2023-08-18T01:32:43.508Z,56.40
2023-08-18T01:35:13.543Z,56.40
2023-08-18T01:37:43.516Z,56.40
2023-08-18T01:40:13.764Z,56.50
2023-08-18T01:42:42.318Z,56.50
2023-08-18T01:45:12.670Z,56.60
2023-08-18T01:47:40.774Z,56.60
2023-08-18T01:50:10.925Z,56.60
2023-08-18T01:52:38.963Z,56.60
2023-08-18T01:55:07.403Z,56.60
2023-08-18T01:57:35.389Z,56.50
2023-08-18T02:00:03.703Z,56.60
2023-08-18T02:02:40.832Z,56.60
2023-08-18T02:05:09.194Z,56.50
2023-08-18T02:07:37.776Z,56.50
2023-08-18T02:10:06.340Z,56.50
2023-08-18T02:12:34.352Z,56.50
2023-08-18T02:15:02.388Z,56.60
2023-08-18T02:17:32.852Z,56.70
2023-08-18T02:20:01.191Z,56.60
2023-08-18T02:22:29.156Z,56.60
2023-08-18T02:24:57.262Z,56.60
2023-08-18T02:27:27.504Z,56.60
2023-08-18T02:29:56.106Z,56.60
2023-08-18T02:32:25.514Z,56.60
2023-08-18T02:34:53.813Z,56.70
2023-08-18T02:37:21.958Z,56.60
2023-08-18T02:39:49.936Z,56.60
2023-08-18T02:42:18.040Z,56.70
2023-08-18T02:44:46.104Z,56.70
2023-08-18T02:47:14.486Z,56.70
2023-08-18T02:49:42.467Z,56.70
2023-08-18T02:52:11.639Z,56.60
2023-08-18T02:54:39.767Z,56.70
2023-08-18T02:57:08.069Z,56.70
2023-08-18T02:59:36.088Z,56.70
2023-08-18T03:02:04.074Z,56.80
2023-08-18T03:04:32.195Z,56.70
2023-08-18T03:07:01.756Z,56.80
2023-08-18T03:09:29.878Z,56.80
2023-08-18T03:11:57.863Z,56.80
2023-08-18T03:14:25.990Z,56.80
2023-08-18T03:16:56.849Z,56.80
2023-08-18T03:19:26.069Z,56.90
2023-08-18T03:21:54.013Z,57.00
2023-08-18T03:24:22.077Z,56.90
2023-08-18T03:26:50.637Z,56.80
2023-08-18T03:29:19.203Z,56.90
2023-08-18T03:31:47.421Z,56.90
2023-08-18T03:34:15.502Z,56.90
2023-08-18T03:36:44.702Z,56.80
2023-08-18T03:39:13.801Z,56.90
2023-08-18T03:41:41.734Z,57.00
2023-08-18T03:44:10.514Z,56.90
2023-08-18T03:46:39.467Z,57.00
2023-08-18T03:49:07.591Z,56.90
2023-08-18T03:51:35.617Z,56.90
2023-08-18T03:54:04.493Z,57.00
2023-08-18T03:56:33.275Z,57.00
2023-08-18T03:59:01.287Z,56.90
2023-08-18T04:01:29.775Z,56.90
2023-08-18T04:04:00.569Z,56.90
2023-08-18T04:06:28.456Z,57.00
2023-08-18T04:09:08.029Z,57.90
2023-08-18T04:11:37.494Z,58.40
2023-08-18T04:14:06.368Z,57.60
2023-08-18T04:16:34.360Z,57.20
2023-08-18T04:19:05.037Z,56.70
2023-08-18T04:21:35.005Z,56.40
2023-08-18T04:24:03.976Z,56.30
2023-08-18T04:26:32.741Z,55.90
2023-08-18T04:29:02.187Z,55.60
2023-08-18T04:31:32.121Z,55.30
2023-08-18T04:34:02.114Z,55.20
2023-08-18T04:36:30.695Z,54.90
2023-08-18T04:38:58.729Z,54.80
2023-08-18T04:41:32.882Z,54.70
2023-08-18T04:44:00.967Z,54.70
2023-08-18T04:46:32.225Z,54.60
2023-08-18T04:49:05.089Z,54.50
2023-08-18T04:51:33.194Z,54.60
2023-08-18T04:54:01.230Z,54.40
2023-08-18T04:56:29.569Z,54.40
2023-08-18T04:58:57.557Z,54.40
2023-08-18T05:01:26.556Z,54.30
2023-08-18T05:03:54.651Z,54.30
2023-08-18T05:06:22.654Z,54.30
2023-08-18T05:08:50.607Z,54.30
2023-08-18T05:11:19.160Z,54.40
2023-08-18T05:13:47.232Z,54.30
2023-08-18T05:16:15.351Z,54.30
2023-08-18T05:18:43.415Z,54.30
2023-08-18T05:21:11.359Z,54.30
2023-08-18T05:23:39.876Z,54.60
2023-08-18T05:26:08.433Z,57.40
2023-08-18T05:28:36.819Z,57.70
2023-08-18T05:31:05.193Z,57.80
2023-08-18T05:33:33.294Z,57.40
2023-08-18T05:36:01.729Z,57.60
2023-08-18T05:38:29.769Z,57.80
2023-08-18T05:45:30.280Z,58.00
2023-08-18T05:47:59.380Z,58.40
2023-08-18T05:50:29.683Z,58.60
2023-08-18T05:52:57.831Z,58.60
2023-08-18T05:55:26.268Z,58.40
2023-08-18T05:57:54.363Z,58.40
2023-08-18T06:00:22.659Z,58.30
2023-08-18T06:02:50.654Z,58.20
2023-08-18T06:05:18.852Z,58.20
2023-08-18T06:07:46.804Z,58.40
2023-08-18T06:10:14.844Z,58.40
2023-08-18T06:12:43.020Z,58.50
2023-08-18T06:15:12.310Z,58.40
2023-08-18T06:17:41.078Z,58.40
2023-08-18T06:20:09.522Z,58.30
2023-08-18T06:22:38.142Z,58.40
2023-08-18T06:25:08.605Z,58.40
2023-08-18T06:27:36.678Z,58.30
2023-08-18T06:30:05.110Z,58.30
2023-08-18T06:32:34.979Z,58.40
2023-08-18T06:35:03.302Z,58.40
2023-08-18T06:37:31.480Z,58.30
2023-08-18T06:39:59.562Z,58.30
2023-08-18T06:42:27.922Z,58.30
2023-08-18T06:44:56.359Z,58.30
2023-08-18T06:47:24.730Z,58.40
2023-08-18T06:49:52.765Z,58.40
2023-08-18T06:52:20.745Z,58.60
2023-08-18T06:54:48.813Z,58.50
2023-08-18T06:57:16.880Z,58.20
2023-08-18T06:59:45.034Z,58.40
2023-08-18T07:02:13.128Z,58.20
2023-08-18T07:04:41.190Z,58.20
2023-08-18T07:07:09.089Z,58.30
2023-08-18T07:09:37.462Z,58.20
2023-08-18T07:12:05.926Z,58.20
2023-08-18T07:14:33.962Z,58.30
2023-08-18T07:17:01.861Z,58.40
2023-08-18T07:19:29.962Z,58.50
2023-08-18T07:23:13.723Z,58.60
2023-08-18T07:25:43.460Z,58.50
2023-08-18T07:28:12.390Z,58.60
2023-08-18T07:30:40.441Z,58.80
2023-08-18T07:33:08.463Z,59.20
2023-08-18T07:35:36.758Z,58.90
2023-08-18T07:38:04.907Z,58.90
2023-08-18T07:40:32.911Z,58.80
2023-08-18T07:43:00.995Z,58.90
2023-08-18T07:45:29.165Z,59.00
2023-08-18T07:47:58.779Z,58.90
2023-08-18T07:50:26.976Z,58.90
2023-08-18T07:52:55.208Z,58.90
2023-08-18T07:55:23.700Z,59.20
2023-08-18T07:57:51.688Z,59.30
2023-08-18T08:00:22.718Z,59.20
2023-08-18T08:02:51.098Z,59.10
2023-08-18T08:05:20.654Z,59.40
2023-08-18T08:07:49.938Z,58.90
2023-08-18T08:10:18.612Z,59.10
2023-08-18T08:12:49.428Z,59.00
2023-08-18T08:15:18.492Z,59.20
2023-08-18T08:17:47.035Z,59.10
2023-08-18T08:20:18.294Z,59.10
2023-08-18T08:22:49.024Z,59.10
2023-08-18T08:25:18.638Z,59.10
2023-08-18T08:27:46.910Z,59.20
2023-08-18T08:30:25.892Z,59.30
2023-08-18T08:33:05.504Z,59.20
2023-08-18T08:35:35.306Z,59.20
2023-08-18T08:38:03.492Z,59.00
2023-08-18T08:40:31.842Z,59.20
2023-08-18T08:45:31.580Z,59.00
2023-08-18T08:48:06.446Z,59.20
2023-08-18T08:50:39.483Z,59.10
2023-08-18T08:53:12.002Z,59.00
